Time;durP1;ratioP1;P1;durP2;ratioP2;P2;SDS_P1;SDS_P2;PMS_P1;PMS_P2;Temp;Humidity;BMP_temperature;BMP_pressure;BME280_temperature;BME280_humidity;BME280_pressure;Samples;Min_cycle;Max_cycle;Signal;HPM_P1;HPM_P2
2022/04/03 00:00:54;;;;;;;3.20;2.90;;;2.30;99.90;;;;;;5074321;28;20194;-66
2022/04/03 00:03:20;;;;;;;4.33;3.33;;;2.30;99.90;;;;;;5074473;28;20591;-66
2022/04/03 00:05:46;;;;;;;6.30;3.73;;;2.30;99.90;;;;;;5054494;28;20273;-66
2022/04/03 00:08:12;;;;;;;7.10;2.83;;;2.20;99.90;;;;;;5090101;28;20192;-66
2022/04/03 00:10:39;;;;;;;3.73;2.97;;;2.20;99.90;;;;;;5057601;28;20249;-66
2022/04/03 00:13:06;;;;;;;3.63;2.80;;;2.20;99.90;;;;;;5083102;28;20188;-66
2022/04/03 00:15:33;;;;;;;5.97;3.00;;;2.20;99.90;;;;;;5085408;28;20269;-66
2022/04/03 00:17:59;;;;;;;4.93;3.10;;;2.20;99.90;;;;;;5074105;28;20218;-66
2022/04/03 00:20:25;;;;;;;2.97;2.67;;;2.20;99.90;;;;;;5091717;28;20558;-66
2022/04/03 00:22:52;;;;;;;4.13;2.93;;;2.20;99.90;;;;;;5055850;28;20189;-66
2022/04/03 00:25:18;;;;;;;5.03;3.10;;;2.20;99.90;;;;;;5091659;28;20185;-66
2022/04/03 00:27:47;;;;;;;3.50;3.20;;;2.10;99.90;;;;;;5074013;28;20194;-66
2022/04/03 00:30:14;;;;;;;3.90;3.03;;;2.00;99.90;;;;;;5074528;28;20197;-66
2022/04/03 00:32:40;;;;;;;3.50;2.87;;;2.00;99.90;;;;;;5073179;28;20197;-66
2022/04/03 00:35:07;;;;;;;7.40;3.67;;;1.90;99.90;;;;;;5072645;28;20195;-67
2022/04/03 00:37:33;;;;;;;3.33;3.10;;;1.90;99.90;;;;;;5055883;28;20192;-66
2022/04/03 00:39:59;;;;;;;5.00;3.43;;;1.90;99.90;;;;;;5073947;28;20228;-66
2022/04/03 00:42:25;;;;;;;3.43;2.90;;;1.90;99.90;;;;;;5090723;28;20195;-67
2022/04/03 00:44:51;;;;;;;5.57;3.77;;;1.90;99.90;;;;;;5090046;28;20195;-66
2022/04/03 00:47:18;;;;;;;3.93;3.57;;;1.90;99.90;;;;;;5091903;28;20191;-66
2022/04/03 00:49:44;;;;;;;4.03;3.57;;;2.00;99.90;;;;;;5091633;28;20216;-66
2022/04/03 00:52:10;;;;;;;3.43;3.13;;;2.00;99.90;;;;;;5057404;28;20223;-66
2022/04/03 00:54:35;;;;;;;5.13;4.03;;;2.00;99.90;;;;;;5090583;28;20195;-66
2022/04/03 00:57:07;;;;;;;5.13;3.10;;;1.90;99.90;;;;;;5091661;28;20590;-66
2022/04/03 00:59:37;;;;;;;3.57;3.27;;;2.10;99.90;;;;;;5091765;28;20272;-65
2022/04/03 01:02:03;;;;;;;5.27;3.10;;;2.00;99.90;;;;;;5090670;28;20208;-66
2022/04/03 01:04:29;;;;;;;3.43;3.10;;;1.90;99.90;;;;;;5091700;28;20294;-66
2022/04/03 01:06:56;;;;;;;10.00;3.80;;;1.80;99.90;;;;;;5093756;28;20270;-67
2022/04/03 01:09:22;;;;;;;4.13;3.70;;;1.80;99.90;;;;;;5095537;28;20195;-66
2022/04/03 01:11:48;;;;;;;9.27;3.97;;;1.90;99.90;;;;;;5095434;28;20287;-66
2022/04/03 01:14:15;;;;;;;6.17;3.50;;;1.80;99.90;;;;;;5077049;28;20213;-67
2022/04/03 01:16:41;;;;;;;5.40;3.97;;;1.70;99.90;;;;;;5095258;28;20266;-67
2022/04/03 01:19:07;;;;;;;6.93;3.93;;;1.70;99.90;;;;;;5094555;28;20223;-67
2022/04/03 01:21:33;;;;;;;3.90;3.33;;;1.60;99.90;;;;;;5077020;28;20641;-70
2022/04/03 01:23:59;;;;;;;4.60;4.17;;;1.50;99.90;;;;;;5060376;28;20241;-67
2022/04/03 01:26:24;;;;;;;5.00;3.20;;;1.60;99.90;;;;;;5076588;28;20676;-66
2022/04/03 01:28:51;;;;;;;3.87;3.37;;;1.60;99.90;;;;;;5076523;28;20192;-66
2022/04/03 01:31:17;;;;;;;3.67;3.30;;;1.50;99.90;;;;;;5094537;28;20272;-67
2022/04/03 01:33:43;;;;;;;3.73;3.37;;;1.50;99.90;;;;;;5075319;28;20188;-67
2022/04/03 01:36:09;;;;;;;4.10;3.60;;;1.50;99.90;;;;;;5094564;28;20243;-67
2022/04/03 01:38:35;;;;;;;6.20;4.20;;;1.50;99.90;;;;;;5094720;28;20319;-66
2022/04/03 01:41:01;;;;;;;5.87;3.00;;;1.50;99.90;;;;;;5076579;28;20193;-67
2022/04/03 01:43:26;;;;;;;3.67;3.20;;;1.50;99.90;;;;;;5094630;28;20190;-66
2022/04/03 01:45:52;;;;;;;4.80;3.80;;;1.60;99.90;;;;;;5076372;28;20194;-66
2022/04/03 01:48:18;;;;;;;6.47;4.93;;;1.60;99.90;;;;;;5076824;28;20203;-66
2022/04/03 01:50:44;;;;;;;7.33;3.90;;;1.50;99.90;;;;;;5093381;28;20191;-66
2022/04/03 01:53:09;;;;;;;6.40;3.80;;;1.50;99.90;;;;;;5059728;28;20270;-67
2022/04/03 01:55:35;;;;;;;4.77;3.53;;;1.50;99.90;;;;;;5074097;28;20272;-67
2022/04/03 01:58:06;;;;;;;7.93;4.17;;;1.50;99.90;;;;;;5076027;28;20721;-67
2022/04/03 02:00:33;;;;;;;3.90;3.27;;;1.40;99.90;;;;;;5076387;28;20556;-68
2022/04/03 02:02:59;;;;;;;5.20;4.20;;;1.20;99.90;;;;;;5074981;28;20233;-68
2022/04/03 02:05:25;;;;;;;4.23;3.67;;;1.20;99.90;;;;;;5076065;28;20247;-66
2022/04/03 02:07:51;;;;;;;5.17;4.67;;;1.20;99.90;;;;;;5093074;28;20189;-67
2022/04/03 02:10:17;;;;;;;7.30;4.50;;;1.10;99.90;;;;;;5094537;28;20188;-67
2022/04/03 02:12:43;;;;;;;5.00;3.80;;;1.10;99.90;;;;;;5075989;28;20193;-66
2022/04/03 02:15:15;;;;;;;4.97;4.47;;;1.00;99.90;;;;;;5093398;28;20185;-67
2022/04/03 02:17:41;;;;;;;3.97;3.60;;;1.00;99.90;;;;;;5094393;28;20182;-67
2022/04/03 02:20:09;;;;;;;6.27;3.80;;;1.10;99.90;;;;;;5072940;28;20635;-67
2022/04/03 02:22:35;;;;;;;5.90;3.90;;;1.00;99.90;;;;;;5056947;28;20197;-67
2022/04/03 02:25:03;;;;;;;5.10;4.27;;;1.00;99.90;;;;;;5075621;28;20191;-67
2022/04/03 02:27:30;;;;;;;12.07;4.90;;;0.90;99.90;;;;;;5094249;28;20630;-67
2022/04/03 02:29:56;;;;;;;9.00;7.50;;;0.90;99.90;;;;;;5093976;28;20204;-70
2022/04/03 02:32:21;;;;;;;10.80;5.83;;;0.80;99.90;;;;;;5059652;28;20524;-66
2022/04/03 02:34:47;;;;;;;6.17;5.23;;;0.70;99.90;;;;;;5076115;28;20314;-66
2022/04/03 02:37:14;;;;;;;7.53;4.90;;;0.60;99.90;;;;;;5059470;28;20585;-66
2022/04/03 02:39:41;;;;;;;10.27;5.17;;;0.60;99.90;;;;;;5075346;28;20275;-66
2022/04/03 02:42:07;;;;;;;9.07;4.87;;;0.60;99.90;;;;;;5075986;28;20634;-67
2022/04/03 02:44:34;;;;;;;6.97;5.20;;;0.50;99.90;;;;;;5075516;28;20185;-66
2022/04/03 02:47:00;;;;;;;6.77;5.00;;;0.60;99.90;;;;;;5058207;28;20194;-67
2022/04/03 02:49:26;;;;;;;7.37;4.93;;;0.50;99.90;;;;;;5093719;28;20188;-66
2022/04/03 02:51:52;;;;;;;7.80;5.20;;;0.50;99.90;;;;;;5075616;28;20190;-66
2022/04/03 02:54:17;;;;;;;10.47;5.50;;;0.50;99.90;;;;;;5075726;28;20226;-66
2022/04/03 02:56:43;;;;;;;7.07;5.17;;;0.50;99.90;;;;;;5075596;28;20290;-66
2022/04/03 02:59:09;;;;;;;6.13;5.43;;;0.40;99.90;;;;;;5075316;28;20235;-66
2022/04/03 03:01:35;;;;;;;8.17;6.13;;;0.40;99.90;;;;;;5093208;28;20198;-66
2022/04/03 03:04:00;;;;;;;9.13;5.70;;;0.40;99.90;;;;;;5075390;28;20226;-67
2022/04/03 03:06:26;;;;;;;7.10;5.37;;;0.40;99.90;;;;;;5079108;28;20199;-66
2022/04/03 03:08:52;;;;;;;10.63;6.37;;;0.40;99.90;;;;;;5081721;28;20549;-66
2022/04/03 03:11:17;;;;;;;5.77;4.80;;;0.40;99.90;;;;;;5058821;28;20184;-66
2022/04/03 03:13:43;;;;;;;7.73;5.03;;;0.40;99.90;;;;;;5074497;28;20260;-65
2022/04/03 03:16:08;;;;;;;8.13;6.03;;;0.40;99.90;;;;;;5069227;28;20217;-66
2022/04/03 03:18:34;;;;;;;11.80;6.63;;;0.40;99.90;;;;;;5084925;28;20212;-66
2022/04/03 03:21:00;;;;;;;10.20;6.27;;;0.40;99.90;;;;;;5075026;28;20216;-67
2022/04/03 03:23:25;;;;;;;7.07;4.90;;;0.40;99.90;;;;;;5092342;28;20183;-65
2022/04/03 03:25:51;;;;;;;4.17;3.87;;;0.40;99.90;;;;;;5074738;28;20188;-66
2022/04/03 03:28:17;;;;;;;4.13;3.17;;;0.30;99.90;;;;;;5075192;28;20188;-65
2022/04/03 03:30:43;;;;;;;4.47;4.07;;;0.30;99.90;;;;;;5057621;28;20196;-65
2022/04/03 03:33:09;;;;;;;4.87;4.37;;;0.40;99.90;;;;;;5052945;28;20185;-68
2022/04/03 03:35:34;;;;;;;6.20;4.87;;;0.40;99.90;;;;;;5075704;28;20215;-65
2022/04/03 03:38:00;;;;;;;5.73;4.13;;;0.30;99.90;;;;;;5044642;28;20551;-67
2022/04/03 03:40:27;;;;;;;4.97;4.33;;;0.30;99.90;;;;;;5089955;28;20189;-66
2022/04/03 03:42:53;;;;;;;5.90;4.47;;;0.20;99.90;;;;;;5082242;28;20192;-65
2022/04/03 03:45:18;;;;;;;5.37;4.97;;;0.30;99.90;;;;;;5092693;28;20566;-65
2022/04/03 03:47:46;;;;;;;4.47;4.07;;;0.30;99.90;;;;;;5091587;28;20313;-67
2022/04/03 03:50:13;;;;;;;7.67;4.93;;;0.30;99.90;;;;;;5074482;28;20230;-66
2022/04/03 03:52:39;;;;;;;10.13;4.27;;;0.20;99.90;;;;;;5073906;28;20541;-66
2022/04/03 03:55:06;;;;;;;7.67;4.70;;;0.20;99.90;;;;;;5092691;28;20180;-65
2022/04/03 03:57:31;;;;;;;5.83;4.33;;;0.20;99.90;;;;;;5074222;28;20288;-65
2022/04/03 03:59:57;;;;;;;5.33;4.67;;;0.20;99.90;;;;;;5073340;28;20212;-65
2022/04/03 04:02:23;;;;;;;5.57;4.57;;;0.20;99.90;;;;;;5068950;28;20308;-65
2022/04/03 04:04:48;;;;;;;7.80;4.57;;;0.10;99.90;;;;;;5090929;28;20518;-65
2022/04/03 04:07:14;;;;;;;5.97;4.47;;;0.10;99.90;;;;;;5074165;28;20190;-65
2022/04/03 04:09:43;;;;;;;6.60;4.13;;;0.10;99.90;;;;;;5074524;28;20215;-65
2022/04/03 04:12:09;;;;;;;4.57;4.20;;;0.10;99.90;;;;;;5074622;28;20617;-65
2022/04/03 04:14:37;;;;;;;5.10;4.13;;;0.20;99.90;;;;;;5091204;28;20189;-64
2022/04/03 04:17:03;;;;;;;6.10;4.33;;;0.20;99.90;;;;;;5074645;28;20188;-66
2022/04/03 04:19:29;;;;;;;5.17;3.80;;;0.20;99.90;;;;;;5073499;28;20224;-65
2022/04/03 04:21:56;;;;;;;6.00;4.90;;;0.10;99.90;;;;;;5074630;28;20191;-64
2022/04/03 04:24:21;;;;;;;4.80;4.20;;;0.10;99.90;;;;;;5072915;28;20188;-64
2022/04/03 04:26:47;;;;;;;4.67;4.27;;;0.10;99.90;;;;;;5092016;28;20189;-64
2022/04/03 04:29:12;;;;;;;6.13;4.30;;;0.10;99.90;;;;;;5074299;28;20220;-64
2022/04/03 04:31:38;;;;;;;5.20;3.97;;;-0.10;99.90;;;;;;5091369;28;20204;-66
2022/04/03 04:34:04;;;;;;;8.13;4.50;;;0.00;99.90;;;;;;5073822;28;20271;-65
2022/04/03 04:36:29;;;;;;;5.13;4.10;;;0.00;99.90;;;;;;5092187;28;20185;-64
2022/04/03 04:38:56;;;;;;;8.17;5.20;;;0.00;99.90;;;;;;5073408;28;20223;-65
2022/04/03 04:41:21;;;;;;;8.43;5.23;;;0.00;99.90;;;;;;5076613;28;20276;-64
2022/04/03 04:43:47;;;;;;;6.47;4.57;;;0.00;99.90;;;;;;5077101;28;20267;-64
2022/04/03 04:46:12;;;;;;;4.13;3.73;;;-0.10;99.90;;;;;;5077878;28;20267;-64
2022/04/03 04:48:38;;;;;;;5.00;4.47;;;-0.10;99.90;;;;;;5078064;28;20216;-64
2022/04/03 04:51:04;;;;;;;4.77;3.90;;;0.00;99.90;;;;;;5095927;28;20180;-65
2022/04/03 04:53:29;;;;;;;4.27;3.93;;;-0.10;99.90;;;;;;5077515;28;20620;-65
2022/04/03 04:55:55;;;;;;;5.40;4.90;;;-0.10;99.90;;;;;;5061121;28;20188;-65
2022/04/03 04:58:21;;;;;;;5.17;4.63;;;-0.20;99.90;;;;;;5095635;28;20351;-64
2022/04/03 05:00:46;;;;;;;4.43;3.67;;;-0.10;99.90;;;;;;5077851;28;20192;-64
2022/04/03 05:03:12;;;;;;;4.30;3.90;;;-0.20;99.90;;;;;;5085479;28;20185;-65
2022/04/03 05:05:38;;;;;;;8.27;4.60;;;-0.20;99.90;;;;;;5072129;28;20251;-64
2022/04/03 05:08:04;;;;;;;6.20;5.60;;;-0.10;99.90;;;;;;5077119;28;20195;-64
2022/04/03 05:10:31;;;;;;;7.67;6.07;;;-0.10;99.90;;;;;;5059912;28;20193;-64
2022/04/03 05:12:58;;;;;;;12.63;5.67;;;-0.10;99.90;;;;;;5096605;28;20219;-64
2022/04/03 05:15:24;;;;;;;8.03;5.63;;;-0.10;99.90;;;;;;5076569;28;20213;-64
2022/04/03 05:17:50;;;;;;;8.13;5.47;;;-0.10;99.90;;;;;;5077373;28;20189;-64
2022/04/03 05:20:16;;;;;;;8.80;5.40;;;-0.10;99.90;;;;;;5076637;28;20180;-64
2022/04/03 05:22:42;;;;;;;8.63;6.17;;;-0.10;99.90;;;;;;5069239;28;20186;-64
2022/04/03 05:25:11;;;;;;;9.67;5.17;;;-0.10;99.90;;;;;;5063436;28;20311;-64
2022/04/03 05:27:37;;;;;;;6.97;5.30;;;-0.10;99.90;;;;;;5077061;28;20192;-64
2022/04/03 05:30:03;;;;;;;7.93;4.90;;;-0.10;99.90;;;;;;5076894;28;20189;-65
2022/04/03 05:32:31;;;;;;;5.30;4.77;;;-0.10;99.90;;;;;;5076676;28;20188;-64
2022/04/03 05:34:58;;;;;;;8.00;5.57;;;-0.10;99.90;;;;;;5094964;28;20185;-64
2022/04/03 05:37:24;;;;;;;7.20;5.10;;;-0.10;99.90;;;;;;5077459;28;20242;-65
2022/04/03 05:39:53;;;;;;;9.27;5.33;;;-0.10;99.90;;;;;;5095193;28;20216;-65
2022/04/03 05:42:20;;;;;;;6.60;4.70;;;0.00;99.90;;;;;;5076306;28;20275;-64
2022/04/03 05:44:47;;;;;;;6.60;4.87;;;0.10;99.90;;;;;;5075423;28;20176;-64
2022/04/03 05:47:12;;;;;;;7.50;5.20;;;0.10;99.90;;;;;;5077036;28;20177;-65
2022/04/03 05:49:38;;;;;;;6.03;5.37;;;0.10;99.90;;;;;;5083127;28;20257;-64
2022/04/03 05:52:05;;;;;;;7.63;6.20;;;0.20;99.90;;;;;;5060270;28;20639;-65
2022/04/03 05:54:30;;;;;;;7.40;5.53;;;0.30;99.90;;;;;;5060056;28;20541;-66
2022/04/03 05:56:56;;;;;;;7.07;6.03;;;0.30;99.90;;;;;;5076923;28;20188;-65
2022/04/03 05:59:22;;;;;;;9.07;5.10;;;0.30;99.90;;;;;;5075825;28;20694;-64
2022/04/03 06:01:48;;;;;;;5.00;4.57;;;0.40;99.90;;;;;;5083088;28;20196;-64
2022/04/03 06:04:14;;;;;;;10.90;6.40;;;0.50;99.90;;;;;;5074560;28;20212;-64
2022/04/03 06:06:40;;;;;;;7.93;5.57;;;0.40;99.90;;;;;;5088648;28;20189;-64
2022/04/03 06:09:06;;;;;;;10.93;5.53;;;0.40;99.90;;;;;;5073239;28;20193;-65
2022/04/03 06:11:31;;;;;;;9.10;6.13;;;0.40;99.90;;;;;;5076379;28;20250;-64
2022/04/03 06:13:57;;;;;;;19.43;6.80;;;0.50;99.90;;;;;;5075550;28;20196;-65
2022/04/03 06:16:23;;;;;;;9.87;7.43;;;0.70;99.90;;;;;;5066864;28;20198;-66
2022/04/03 06:18:48;;;;;;;10.57;6.53;;;0.70;99.90;;;;;;5094238;28;20220;-64
2022/04/03 06:21:14;;;;;;;7.13;6.27;;;0.80;99.90;;;;;;5094020;28;20189;-65
2022/04/03 06:23:40;;;;;;;10.90;7.03;;;0.80;99.90;;;;;;5076096;28;20214;-64
2022/04/03 06:26:06;;;;;;;10.37;6.93;;;0.80;99.90;;;;;;5047685;28;20190;-64
2022/04/03 06:28:31;;;;;;;10.37;6.33;;;0.90;99.90;;;;;;5091479;28;20193;-64
2022/04/03 06:31:00;;;;;;;8.43;6.97;;;0.90;99.90;;;;;;5075688;28;20277;-64
2022/04/03 06:33:26;;;;;;;10.00;7.30;;;1.00;99.90;;;;;;5074849;28;20277;-64
2022/04/03 06:35:51;;;;;;;11.83;6.83;;;1.00;99.90;;;;;;5075811;28;20277;-64
2022/04/03 06:38:17;;;;;;;10.43;7.43;;;1.10;99.90;;;;;;5092499;28;20221;-64
2022/04/03 06:40:52;;;;;;;11.00;7.63;;;1.10;99.90;;;;;;5059053;28;20184;-64
2022/04/03 06:43:29;;;;;;;13.07;6.83;;;1.20;99.90;;;;;;5094021;28;20244;-64
2022/04/03 06:45:56;;;;;;;8.67;6.77;;;1.20;99.90;;;;;;5075725;28;20233;-64
2022/04/03 06:48:22;;;;;;;10.20;8.03;;;1.30;99.90;;;;;;5058845;28;20568;-64
2022/04/03 06:50:48;;;;;;;10.90;7.70;;;1.40;99.90;;;;;;5075298;28;20198;-68
2022/04/03 06:53:14;;;;;;;15.53;9.20;;;1.40;99.90;;;;;;5059414;28;20189;-64
2022/04/03 06:55:39;;;;;;;12.57;10.37;;;1.50;99.90;;;;;;5050570;28;20220;-64
2022/04/03 06:58:05;;;;;;;17.53;8.90;;;1.60;99.90;;;;;;5092927;28;20220;-64
2022/04/03 07:00:31;;;;;;;12.83;9.57;;;1.70;99.90;;;;;;5076386;28;20189;-64
2022/04/03 07:02:57;;;;;;;18.53;11.20;;;1.70;99.90;;;;;;5087023;28;20654;-64
2022/04/03 07:05:23;;;;;;;17.47;10.93;;;1.80;99.90;;;;;;5076559;28;20191;-64
2022/04/03 07:07:52;;;;;;;16.73;8.10;;;1.90;99.90;;;;;;5075376;28;20177;-64
2022/04/03 07:10:19;;;;;;;12.77;7.97;;;2.00;99.90;;;;;;5093182;28;20580;-65
2022/04/03 07:12:45;;;;;;;11.27;8.77;;;2.20;99.90;;;;;;5093558;28;20191;-68
2022/04/03 07:15:12;;;;;;;10.57;7.87;;;2.30;99.90;;;;;;5093184;28;20188;-64
2022/04/03 07:17:43;;;;;;;8.47;7.30;;;2.50;99.90;;;;;;5075516;28;20191;-64
2022/04/03 07:20:15;;;;;;;10.17;8.07;;;2.60;99.90;;;;;;5074084;28;20224;-67
2022/04/03 07:22:44;;;;;;;11.90;7.33;;;2.80;99.90;;;;;;5075070;28;20191;-64
2022/04/03 07:25:11;;;;;;;10.43;7.90;;;2.90;99.90;;;;;;5074736;28;20197;-64
2022/04/03 07:27:37;;;;;;;9.33;5.73;;;3.10;99.90;;;;;;5074145;28;20193;-64
2022/04/03 07:30:05;;;;;;;7.63;5.23;;;3.90;99.90;;;;;;5070322;28;20219;-64
2022/04/03 07:32:31;;;;;;;5.23;4.57;;;6.00;99.90;;;;;;5087053;28;20649;-64
2022/04/03 07:34:57;;;;;;;5.07;3.67;;;8.50;99.90;;;;;;5092722;28;20184;-66
2022/04/03 07:37:23;;;;;;;4.93;3.23;;;10.60;99.90;;;;;;5075010;28;20176;-66
2022/04/03 07:39:48;;;;;;;3.77;2.40;;;12.50;99.90;;;;;;5092656;28;20219;-67
2022/04/03 07:42:14;;;;;;;3.88;2.08;;;13.80;99.90;;;;;;5092367;28;20560;-66
2022/04/03 07:44:40;;;;;;;2.45;2.25;;;14.60;99.90;;;;;;5073937;28;20208;-66
2022/04/03 07:47:05;;;;;;;2.20;2.08;;;15.50;99.90;;;;;;5091829;28;20203;-68
2022/04/03 07:49:31;;;;;;;2.38;1.70;;;16.00;99.90;;;;;;5057297;28;20196;-66
2022/04/03 07:51:57;;;;;;;2.63;2.03;;;16.10;99.90;;;;;;5074558;28;20619;-67
2022/04/03 07:54:22;;;;;;;2.78;2.40;;;16.70;99.90;;;;;;5074324;28;20180;-67
2022/04/03 07:56:48;;;;;;;2.50;2.00;;;17.30;99.90;;;;;;5074571;28;20192;-67
2022/04/03 07:59:14;;;;;;;3.85;2.42;;;17.60;99.90;;;;;;5073313;28;20588;-66
2022/04/03 08:01:40;;;;;;;1.85;1.75;;;17.90;99.90;;;;;;5092839;28;20176;-67
2022/04/03 08:04:05;;;;;;;3.17;1.85;;;17.40;99.90;;;;;;5092212;28;20621;-67
2022/04/03 08:06:31;;;;;;;2.70;2.05;;;17.30;99.90;;;;;;5074712;28;20184;-67
2022/04/03 08:08:57;;;;;;;2.78;2.05;;;17.40;99.90;;;;;;5063696;28;20197;-66
2022/04/03 08:11:22;;;;;;;1.52;1.35;;;15.80;99.90;;;;;;5074439;28;20181;-66
2022/04/03 08:13:48;;;;;;;1.45;1.33;;;16.10;99.90;;;;;;5062247;28;20189;-67
2022/04/03 08:16:15;;;;;;;2.28;1.33;;;16.30;99.90;;;;;;5070901;28;20189;-66
2022/04/03 08:18:42;;;;;;;1.48;1.17;;;16.40;99.90;;;;;;5078767;28;20307;-66
2022/04/03 08:21:08;;;;;;;4.18;1.67;;;17.10;99.90;;;;;;5078058;28;20271;-67
2022/04/03 08:23:33;;;;;;;3.92;1.40;;;17.60;99.90;;;;;;5083834;28;20243;-66
2022/04/03 08:25:59;;;;;;;2.95;1.40;;;17.40;99.90;;;;;;5085756;28;20188;-66
2022/04/03 08:28:24;;;;;;;2.13;1.00;;;18.10;99.90;;;;;;5076690;28;20192;-67
2022/04/03 08:30:51;;;;;;;1.48;1.38;;;17.70;99.90;;;;;;5096224;28;20180;-67
2022/04/03 08:33:16;;;;;;;1.65;1.55;;;18.50;99.90;;;;;;5078119;28;20177;-67
2022/04/03 08:35:42;;;;;;;4.93;2.10;;;19.00;99.90;;;;;;5095640;28;20183;-66
2022/04/03 08:38:08;;;;;;;3.90;1.70;;;19.10;99.90;;;;;;5077756;28;20192;-67
2022/04/03 08:40:35;;;;;;;4.57;1.92;;;19.10;99.90;;;;;;5096355;28;20233;-68
2022/04/03 08:43:01;;;;;;;3.00;1.73;;;19.30;99.90;;;;;;5095793;28;20224;-67
2022/04/03 08:45:28;;;;;;;3.00;1.60;;;19.30;99.30;;;;;;5095475;28;20249;-67
2022/04/03 08:47:58;;;;;;;5.35;2.45;;;18.40;99.90;;;;;;5096462;28;20216;-67
2022/04/03 08:50:29;;;;;;;1.20;1.08;;;17.40;99.90;;;;;;5095879;28;20181;-67
2022/04/03 08:52:58;;;;;;;1.88;1.65;;;17.40;99.90;;;;;;5096073;28;20648;-67
2022/04/03 08:55:24;;;;;;;1.75;1.65;;;16.40;99.90;;;;;;5094074;28;20548;-66
2022/04/03 08:57:50;;;;;;;2.00;1.85;;;14.60;99.90;;;;;;5096031;28;20211;-67
2022/04/03 09:00:16;;;;;;;2.83;2.42;;;13.10;99.90;;;;;;5077476;28;20236;-66
2022/04/03 09:02:47;;;;;;;3.05;2.10;;;12.00;99.90;;;;;;5095839;28;20690;-66
2022/04/03 09:05:14;;;;;;;3.55;2.20;;;11.20;99.90;;;;;;5076906;28;20189;-66
2022/04/03 09:07:40;;;;;;;2.28;2.05;;;10.50;99.90;;;;;;5074557;28;20653;-67
2022/04/03 09:10:07;;;;;;;3.65;2.50;;;9.90;99.90;;;;;;5060464;28;20195;-72
2022/04/03 09:12:33;;;;;;;3.30;3.00;;;9.60;99.90;;;;;;5095404;28;20180;-66
2022/04/03 09:14:59;;;;;;;3.37;2.67;;;9.20;99.90;;;;;;5095373;28;20716;-66
2022/04/03 09:17:35;;;;;;;3.00;2.60;;;9.50;99.90;;;;;;5076726;28;20224;-66
2022/04/03 09:20:13;;;;;;;3.83;2.70;;;9.40;99.90;;;;;;5060759;28;20220;-66
2022/04/03 09:22:41;;;;;;;4.07;2.90;;;9.40;99.90;;;;;;5095466;28;20172;-67
2022/04/03 09:25:10;;;;;;;2.70;2.47;;;9.30;99.90;;;;;;5095041;28;20187;-67
2022/04/03 09:27:46;;;;;;;2.70;2.50;;;9.30;99.90;;;;;;5056790;28;20190;-66
2022/04/03 09:30:12;;;;;;;3.83;2.70;;;9.20;99.90;;;;;;5090080;28;20199;-66
2022/04/03 09:32:54;;;;;;;4.23;3.07;;;8.90;99.90;;;;;;5094611;28;20195;-66
2022/04/03 09:35:26;;;;;;;6.53;4.03;;;8.90;99.90;;;;;;5095441;28;20185;-66
2022/04/03 09:38:10;;;;;;;4.00;3.50;;;8.60;99.90;;;;;;5082519;28;20260;-66
2022/04/03 09:40:55;;;;;;;5.90;4.13;;;8.20;99.90;;;;;;5094846;28;20661;-66
2022/04/03 09:43:40;;;;;;;5.77;4.33;;;8.40;99.90;;;;;;5070655;28;20974;-66
2022/04/03 09:46:10;;;;;;;4.13;3.73;;;8.40;99.90;;;;;;5065039;28;20183;-66
2022/04/03 09:48:41;;;;;;;6.07;4.83;;;8.80;99.90;;;;;;5094734;28;20192;-66
2022/04/03 09:51:11;;;;;;;5.10;3.83;;;8.80;99.90;;;;;;5071190;28;20708;-68
2022/04/03 09:53:45;;;;;;;4.40;4.10;;;8.60;99.90;;;;;;5061912;28;20188;-66
2022/04/03 09:56:33;;;;;;;5.70;4.73;;;8.50;99.90;;;;;;5086507;28;20182;-67
2022/04/03 09:59:05;;;;;;;8.20;4.23;;;8.60;99.90;;;;;;5085878;28;20219;-66
2022/04/03 10:01:38;;;;;;;4.63;3.60;;;8.70;99.90;;;;;;5094263;28;20184;-67
2022/04/03 10:04:06;;;;;;;10.67;4.30;;;8.80;99.90;;;;;;5094768;28;20188;-66
2022/04/03 10:06:34;;;;;;;4.63;3.93;;;8.70;99.90;;;;;;5076134;28;20181;-66
2022/04/03 10:09:01;;;;;;;3.97;3.63;;;8.70;99.90;;;;;;5075983;28;20184;-66
2022/04/03 10:11:27;;;;;;;4.57;4.10;;;8.60;99.90;;;;;;5076761;28;20223;-66
2022/04/03 10:13:53;;;;;;;4.07;3.77;;;8.60;99.90;;;;;;5093730;28;20211;-66
2022/04/03 10:16:21;;;;;;;8.53;5.53;;;8.60;99.90;;;;;;5094028;28;20187;-66
2022/04/03 10:18:48;;;;;;;6.67;4.40;;;8.50;99.90;;;;;;5094389;28;20216;-66
2022/04/03 10:21:43;;;;;;;5.33;4.33;;;8.50;99.90;;;;;;5059563;28;20195;-66
2022/04/03 10:24:18;;;;;;;5.43;4.20;;;8.40;99.90;;;;;;5090631;28;20196;-66
2022/04/03 10:26:51;;;;;;;4.07;3.67;;;8.70;99.90;;;;;;5092996;28;20263;-66
2022/04/03 10:29:17;;;;;;;4.47;3.50;;;8.50;99.90;;;;;;5094369;28;20255;-66
2022/04/03 10:31:56;;;;;;;5.03;4.50;;;8.60;99.90;;;;;;5063516;28;20250;-67
2022/04/03 10:34:22;;;;;;;5.03;4.53;;;8.70;99.90;;;;;;5086591;28;20173;-67
2022/04/03 10:36:53;;;;;;;6.33;5.27;;;9.10;99.90;;;;;;5094427;28;20185;-66
2022/04/03 10:39:25;;;;;;;4.60;4.20;;;9.40;99.90;;;;;;5092344;28;20269;-67
2022/04/03 10:42:10;;;;;;;5.90;4.90;;;9.40;99.90;;;;;;5086188;28;20228;-66
2022/04/03 10:44:36;;;;;;;5.00;4.60;;;9.50;99.90;;;;;;5083714;28;20195;-67
2022/04/03 10:47:02;;;;;;;5.23;4.83;;;9.60;99.90;;;;;;5058821;28;20633;-67
2022/04/03 10:49:41;;;;;;;5.07;4.67;;;10.00;99.90;;;;;;5073519;28;20641;-66
2022/04/03 10:52:09;;;;;;;5.83;4.83;;;10.20;99.90;;;;;;5085877;28;20239;-71
2022/04/03 10:54:50;;;;;;;4.67;4.27;;;10.20;99.90;;;;;;5092736;28;20212;-67
2022/04/03 10:57:40;;;;;;;6.67;5.60;;;10.10;99.90;;;;;;5093435;28;20157;-67
2022/04/03 11:00:12;;;;;;;4.77;4.37;;;10.10;99.90;;;;;;5093696;28;20204;-67
2022/04/03 11:02:38;;;;;;;7.30;5.60;;;9.90;99.90;;;;;;5093387;28;20188;-67
2022/04/03 11:05:25;;;;;;;9.43;5.93;;;10.20;99.90;;;;;;5075529;28;20629;-66
2022/04/03 11:07:54;;;;;;;7.40;6.03;;;10.40;99.90;;;;;;5076375;28;20531;-66
2022/04/03 11:10:48;;;;;;;7.13;6.37;;;10.30;99.90;;;;;;5094194;28;20645;-66
2022/04/03 11:13:21;;;;;;;8.53;6.53;;;10.10;99.90;;;;;;5075258;28;20493;-66
2022/04/03 11:15:53;;;;;;;7.73;6.93;;;9.70;99.90;;;;;;5058852;28;20533;-66
2022/04/03 11:18:29;;;;;;;6.97;6.33;;;9.70;99.90;;;;;;5075012;28;20234;-66
2022/04/03 11:21:26;;;;;;;7.77;5.77;;;9.70;99.90;;;;;;5083226;28;20649;-66
2022/04/03 11:23:58;;;;;;;7.90;5.87;;;9.70;99.90;;;;;;5091430;28;20524;-66
2022/04/03 11:26:24;;;;;;;8.73;5.77;;;10.10;99.90;;;;;;5092382;28;20189;-66
2022/04/03 11:28:49;;;;;;;5.30;4.80;;;10.50;99.90;;;;;;5093160;28;20652;-66
2022/04/03 11:31:16;;;;;;;6.00;5.50;;;10.90;99.90;;;;;;5081823;28;20243;-66
2022/04/03 11:33:42;;;;;;;5.07;4.57;;;11.20;99.90;;;;;;5074494;28;20176;-66
2022/04/03 11:36:12;;;;;;;7.40;5.63;;;11.30;99.90;;;;;;5059001;28;20272;-65
2022/04/03 11:38:44;;;;;;;5.93;4.85;;;11.60;99.90;;;;;;5072889;28;20388;-66
2022/04/03 11:41:12;;;;;;;5.82;4.80;;;11.60;99.90;;;;;;5074462;28;20170;-66
2022/04/03 11:43:39;;;;;;;3.72;3.42;;;11.60;99.90;;;;;;5074506;28;20763;-67
2022/04/03 11:46:06;;;;;;;2.70;2.50;;;11.30;99.90;;;;;;5074666;28;20185;-67
2022/04/03 11:48:42;;;;;;;3.80;3.50;;;11.00;99.90;;;;;;5077873;28;20197;-67
2022/04/03 11:51:08;;;;;;;3.15;2.95;;;10.80;99.90;;;;;;5086357;28;20212;-67
2022/04/03 11:53:36;;;;;;;3.10;2.90;;;11.10;99.90;;;;;;5082410;28;20555;-67
2022/04/03 11:56:06;;;;;;;3.53;3.30;;;11.30;99.90;;;;;;5071441;28;20271;-67
2022/04/03 11:58:36;;;;;;;3.45;3.17;;;11.60;99.90;;;;;;5074372;28;20216;-67
2022/04/03 12:01:03;;;;;;;4.25;3.95;;;11.70;99.90;;;;;;5092269;28;20192;-67
2022/04/03 12:03:29;;;;;;;4.70;3.40;;;11.60;99.90;;;;;;5092312;28;20690;-67
2022/04/03 12:06:14;;;;;;;3.80;3.50;;;11.60;99.90;;;;;;5067885;28;20634;-67
2022/04/03 12:08:41;;;;;;;3.55;3.33;;;11.60;99.90;;;;;;5074814;28;20259;-67
2022/04/03 12:11:26;;;;;;;3.08;2.88;;;11.80;99.90;;;;;;5092721;28;20645;-67
2022/04/03 12:14:01;;;;;;;4.57;4.18;;;12.20;99.90;;;;;;5092143;28;20175;-68
2022/04/03 12:16:29;;;;;;;5.57;3.70;;;12.30;99.90;;;;;;5073996;28;20187;-67
2022/04/03 12:18:56;;;;;;;5.07;4.38;;;11.80;99.90;;;;;;5092023;28;20200;-67
2022/04/03 12:21:46;;;;;;;4.57;4.25;;;11.80;99.90;;;;;;5092308;28;20173;-67
2022/04/03 12:24:21;;;;;;;6.60;3.92;;;11.70;99.90;;;;;;5073799;28;20656;-67
2022/04/03 12:27:05;;;;;;;3.65;3.38;;;12.00;99.90;;;;;;5092396;28;20199;-67
2022/04/03 12:29:32;;;;;;;3.97;3.67;;;12.30;99.90;;;;;;5073200;28;20283;-66
2022/04/03 12:32:03;;;;;;;5.38;3.83;;;12.10;99.90;;;;;;5074426;28;20234;-66
2022/04/03 12:34:34;;;;;;;4.47;4.15;;;11.70;99.90;;;;;;5091979;28;20300;-66
2022/04/03 12:37:02;;;;;;;4.37;3.50;;;11.20;99.90;;;;;;5092047;28;20181;-66
2022/04/03 12:39:50;;;;;;;5.70;3.20;;;11.00;99.90;;;;;;5064157;28;20213;-66
2022/04/03 12:42:23;;;;;;;4.13;3.17;;;10.70;99.90;;;;;;5078065;28;20264;-66
2022/04/03 12:44:56;;;;;;;3.90;3.60;;;10.60;99.90;;;;;;5073219;28;20283;-66
2022/04/03 12:47:23;;;;;;;3.87;3.57;;;10.20;99.90;;;;;;5073905;28;20199;-66
2022/04/03 12:50:07;;;;;;;3.83;3.47;;;10.50;99.90;;;;;;5074010;28;20193;-70
2022/04/03 12:52:49;;;;;;;3.73;3.43;;;10.70;99.90;;;;;;5072798;28;20165;-66
2022/04/03 12:55:23;;;;;;;4.40;4.00;;;9.70;99.90;;;;;;5072749;28;20170;-68
2022/04/03 13:00:44;;;;;;;3.73;3.43;;;9.20;99.90;;;;;;5092176;28;20200;-67